createdAt,value
2017-04-30T00:00:23.673Z,21.99
2017-04-30T00:01:32.402Z,22.02
2017-04-30T00:02:42.267Z,22
2017-04-30T00:03:51.650Z,22.04
2017-04-30T00:05:00.728Z,22
2017-04-30T00:06:09.794Z,22.02
2017-04-30T00:07:18.561Z,22
2017-04-30T00:08:27.507Z,21.98
2017-04-30T00:09:37.122Z,21.93
2017-04-30T00:10:46.171Z,21.99
2017-04-30T00:11:54.942Z,21.93
2017-04-30T00:13:04.336Z,21.92
2017-04-30T00:14:13.711Z,21.93
2017-04-30T00:15:23.403Z,21.91
2017-04-30T00:16:32.432Z,21.89
2017-04-30T00:17:41.175Z,21.89
2017-04-30T00:18:50.860Z,21.95
2017-04-30T00:20:00.194Z,21.88
2017-04-30T00:21:08.927Z,21.89
2017-04-30T00:22:18.310Z,21.93
2017-04-30T00:23:27.341Z,21.88
2017-04-30T00:24:36.956Z,21.91
2017-04-30T00:25:45.690Z,21.92
2017-04-30T00:26:54.762Z,21.93
2017-04-30T00:28:04.133Z,21.83
2017-04-30T00:29:13.515Z,21.88
2017-04-30T00:30:22.889Z,21.88
2017-04-30T00:31:31.971Z,21.88
2017-04-30T00:32:41.047Z,21.91
2017-04-30T00:33:50.109Z,21.88
2017-04-30T00:35:00.094Z,21.91
2017-04-30T00:36:08.859Z,21.85
2017-04-30T00:37:17.917Z,21.92
2017-04-30T00:38:27.279Z,21.92
2017-04-30T00:39:36.654Z,21.91
2017-04-30T00:40:46.038Z,21.8
2017-04-30T00:41:55.414Z,21.93
2017-04-30T00:43:04.801Z,21.8
2017-04-30T00:44:14.183Z,21.91
2017-04-30T00:45:23.261Z,21.83
2017-04-30T00:46:32.287Z,21.91
2017-04-30T00:47:41.636Z,21.88
2017-04-30T00:48:50.984Z,21.79
2017-04-30T00:50:00.039Z,21.79
2017-04-30T00:51:09.105Z,21.82
2017-04-30T00:52:17.871Z,21.82
2017-04-30T00:53:27.212Z,21.83
2017-04-30T00:54:36.557Z,21.83
2017-04-30T00:55:45.324Z,21.77
2017-04-30T00:56:54.702Z,21.79
2017-04-30T00:58:03.768Z,21.75
2017-04-30T00:59:12.878Z,21.75
2017-04-30T01:00:21.918Z,21.8
2017-04-30T01:01:30.667Z,21.72
2017-04-30T01:02:40.113Z,21.73
2017-04-30T01:03:49.300Z,21.72
2017-04-30T01:04:58.917Z,21.75
2017-04-30T01:06:08.564Z,21.77
2017-04-30T01:07:17.341Z,21.79
2017-04-30T01:08:26.719Z,21.73
2017-04-30T01:09:36.101Z,21.77
2017-04-30T01:10:45.333Z,21.73
2017-04-30T01:11:54.115Z,21.75
2017-04-30T01:13:03.801Z,21.77
2017-04-30T01:14:13.749Z,21.72
2017-04-30T01:15:22.495Z,21.75
2017-04-30T01:16:31.567Z,21.66
2017-04-30T01:17:40.941Z,21.66
2017-04-30T01:18:50.512Z,21.73
2017-04-30T01:19:59.854Z,21.7
2017-04-30T01:21:09.205Z,21.69
2017-04-30T01:22:18.577Z,21.72
2017-04-30T01:23:27.949Z,21.73
2017-04-30T01:24:37.624Z,21.66
2017-04-30T01:25:46.987Z,21.69
2017-04-30T01:26:55.752Z,21.69
2017-04-30T01:28:04.820Z,21.69
2017-04-30T01:29:14.215Z,21.73
2017-04-30T01:30:23.288Z,21.73
2017-04-30T01:31:32.663Z,21.7
2017-04-30T01:32:42.338Z,21.7
2017-04-30T01:33:51.716Z,21.73
2017-04-30T01:35:01.700Z,21.72
2017-04-30T01:36:10.770Z,21.7
2017-04-30T01:37:20.449Z,21.75
2017-04-30T01:38:29.823Z,21.7
2017-04-30T01:39:39.195Z,21.66
2017-04-30T01:40:48.272Z,21.73
2017-04-30T01:41:57.638Z,21.64
2017-04-30T01:43:07.001Z,21.69
2017-04-30T01:44:16.087Z,21.7
2017-04-30T01:45:25.155Z,21.57
2017-04-30T01:46:33.916Z,21.67
2017-04-30T01:47:43.291Z,21.6
2017-04-30T01:48:53.377Z,21.58
2017-04-30T01:50:03.361Z,21.67
2017-04-30T01:51:12.431Z,21.66
2017-04-30T01:52:21.226Z,21.6
2017-04-30T01:53:30.317Z,21.66
2017-04-30T01:54:39.661Z,21.62
2017-04-30T01:55:48.399Z,21.69
2017-04-30T01:56:57.473Z,21.58
2017-04-30T01:58:06.505Z,21.57
2017-04-30T01:59:15.509Z,21.6
2017-04-30T02:00:24.853Z,21.6
2017-04-30T02:01:33.882Z,21.6
2017-04-30T02:02:42.633Z,21.62
2017-04-30T02:03:52.321Z,21.62
2017-04-30T02:05:01.692Z,21.6
2017-04-30T02:06:11.388Z,21.61
2017-04-30T02:07:20.771Z,21.58
2017-04-30T02:08:30.149Z,21.6
2017-04-30T02:09:40.135Z,21.57
2017-04-30T02:10:49.210Z,21.64
2017-04-30T02:11:58.583Z,21.58
2017-04-30T02:13:07.654Z,21.6
2017-04-30T02:14:17.237Z,21.62
2017-04-30T02:15:26.620Z,21.64
2017-04-30T02:16:35.681Z,21.58
2017-04-30T02:17:45.061Z,21.57
2017-04-30T02:18:53.831Z,21.64
2017-04-30T02:20:02.900Z,21.55
2017-04-30T02:21:11.661Z,21.6
2017-04-30T02:22:20.433Z,21.6
2017-04-30T02:23:29.205Z,21.57
2017-04-30T02:24:37.989Z,21.52
2017-04-30T02:25:47.069Z,21.57
2017-04-30T02:26:55.844Z,21.57
2017-04-30T02:28:04.894Z,21.61
2017-04-30T02:29:14.598Z,21.54
2017-04-30T02:30:23.715Z,21.5
2017-04-30T02:31:32.805Z,21.57
2017-04-30T02:32:41.554Z,21.52
2017-04-30T02:33:50.294Z,21.55
2017-04-30T02:34:59.049Z,21.51
2017-04-30T02:36:07.830Z,21.52
2017-04-30T02:37:16.895Z,21.52
2017-04-30T02:38:25.967Z,21.46
2017-04-30T02:39:35.363Z,21.58
2017-04-30T02:40:44.099Z,21.5
2017-04-30T02:41:53.455Z,21.51
2017-04-30T02:43:02.840Z,21.48
2017-04-30T02:44:12.516Z,21.46
2017-04-30T02:45:21.583Z,21.5
2017-04-30T02:46:30.623Z,21.51
2017-04-30T02:47:39.716Z,21.54
2017-04-30T02:48:49.729Z,21.5
2017-04-30T02:49:58.813Z,21.43
2017-04-30T02:51:08.158Z,21.5
2017-04-30T02:52:17.216Z,21.5
2017-04-30T02:53:26.309Z,21.51
2017-04-30T02:54:35.668Z,21.4
2017-04-30T02:55:44.688Z,21.46
2017-04-30T02:56:53.399Z,21.42
2017-04-30T02:58:02.457Z,21.5
2017-04-30T02:59:11.552Z,21.52
2017-04-30T03:00:20.927Z,21.46
2017-04-30T03:01:30.280Z,21.45
2017-04-30T03:02:39.339Z,21.43
2017-04-30T03:03:48.134Z,21.5
2017-04-30T03:04:57.822Z,21.4
2017-04-30T03:06:07.212Z,21.45
2017-04-30T03:07:16.902Z,21.42
2017-04-30T03:08:25.985Z,21.48
2017-04-30T03:09:35.366Z,21.46
2017-04-30T03:10:44.410Z,21.48
2017-04-30T03:11:53.466Z,21.48
2017-04-30T03:13:02.860Z,21.42
2017-04-30T03:14:12.212Z,21.4
2017-04-30T03:15:21.549Z,21.42
2017-04-30T03:16:30.296Z,21.43
2017-04-30T03:17:39.382Z,21.43
2017-04-30T03:18:48.364Z,21.36
2017-04-30T03:19:57.758Z,21.39
2017-04-30T03:21:06.845Z,21.43
2017-04-30T03:22:15.625Z,21.4
2017-04-30T03:23:24.673Z,21.4
2017-04-30T03:24:33.738Z,21.45
2017-04-30T03:25:42.474Z,21.43
2017-04-30T03:26:51.229Z,21.37
2017-04-30T03:28:00.008Z,21.39
2017-04-30T03:29:09.054Z,21.43
2017-04-30T03:30:17.809Z,21.4
2017-04-30T03:31:26.586Z,21.39
2017-04-30T03:32:35.977Z,21.37
2017-04-30T03:33:44.759Z,21.37
2017-04-30T03:34:54.454Z,21.37
2017-04-30T03:36:03.549Z,21.39
2017-04-30T03:37:12.642Z,21.43
2017-04-30T03:38:22.016Z,21.43
2017-04-30T03:39:31.417Z,21.45
2017-04-30T03:40:40.149Z,21.42
2017-04-30T03:41:49.205Z,21.37
2017-04-30T03:42:58.600Z,21.39
2017-04-30T03:44:07.690Z,21.4
2017-04-30T03:45:17.129Z,21.4
2017-04-30T03:46:25.907Z,21.37
2017-04-30T03:47:34.987Z,21.33
2017-04-30T03:48:44.685Z,21.42
2017-04-30T03:49:54.714Z,21.33
2017-04-30T03:51:04.105Z,21.4
2017-04-30T03:52:12.874Z,21.33
2017-04-30T03:53:21.609Z,21.43
2017-04-30T03:54:30.997Z,21.36
2017-04-30T03:55:40.388Z,21.37
2017-04-30T03:56:49.172Z,21.36
2017-04-30T03:57:57.954Z,21.39
2017-04-30T03:59:07.644Z,21.4
2017-04-30T04:00:17.028Z,21.3
2017-04-30T04:01:26.072Z,21.33
2017-04-30T04:02:34.820Z,21.37
2017-04-30T04:03:44.482Z,21.32
2017-04-30T04:04:53.517Z,21.36
2017-04-30T04:06:02.601Z,21.32
2017-04-30T04:07:11.379Z,21.35
2017-04-30T04:08:20.730Z,21.29
2017-04-30T04:09:29.747Z,21.25
2017-04-30T04:10:38.454Z,21.3
2017-04-30T04:11:47.516Z,21.32
2017-04-30T04:12:56.600Z,21.22
2017-04-30T04:14:06.004Z,21.21
2017-04-30T04:15:15.094Z,21.29
2017-04-30T04:16:23.870Z,21.22
2017-04-30T04:17:32.946Z,21.21
2017-04-30T04:18:42.333Z,21.21
2017-04-30T04:19:51.866Z,21.22
2017-04-30T04:21:01.256Z,21.2
2017-04-30T04:22:10.641Z,21.21
2017-04-30T04:23:19.715Z,21.24
2017-04-30T04:24:29.100Z,21.25
2017-04-30T04:25:38.195Z,21.24
2017-04-30T04:26:47.279Z,21.2
2017-04-30T04:27:56.022Z,21.22
2017-04-30T04:29:05.081Z,21.22
2017-04-30T04:30:14.452Z,21.21
2017-04-30T04:31:23.832Z,21.22
2017-04-30T04:32:32.940Z,21.21
2017-04-30T04:33:41.714Z,21.2
2017-04-30T04:34:50.799Z,21.22
2017-04-30T04:36:00.507Z,21.21
2017-04-30T04:37:09.590Z,21.2
2017-04-30T04:38:18.674Z,21.18
2017-04-30T04:39:28.067Z,21.21
2017-04-30T04:40:36.840Z,21.18
2017-04-30T04:41:45.619Z,21.24
2017-04-30T04:42:54.397Z,21.21
2017-04-30T04:44:03.479Z,21.24
2017-04-30T04:45:13.176Z,21.24
2017-04-30T04:46:22.255Z,21.24
2017-04-30T04:47:31.035Z,21.3
2017-04-30T04:48:40.389Z,21.32
2017-04-30T04:49:49.687Z,21.24
2017-04-30T04:50:58.467Z,21.24
2017-04-30T04:52:07.853Z,21.25
2017-04-30T04:53:17.220Z,21.3
2017-04-30T04:54:26.887Z,21.32
2017-04-30T04:55:35.977Z,21.33
2017-04-30T04:56:44.757Z,21.32
2017-04-30T04:57:54.150Z,21.33
2017-04-30T04:59:03.228Z,21.42
2017-04-30T05:00:12.002Z,21.3
2017-04-30T05:01:21.401Z,21.36
2017-04-30T05:02:30.144Z,21.42
2017-04-30T05:03:39.505Z,21.39
2017-04-30T05:04:48.584Z,21.4
2017-04-30T05:05:57.624Z,21.42
2017-04-30T05:07:06.378Z,21.48
2017-04-30T05:08:16.071Z,21.42
2017-04-30T05:09:25.149Z,21.43
2017-04-30T05:10:34.546Z,21.43
2017-04-30T05:11:43.637Z,21.5
2017-04-30T05:12:53.342Z,21.55
2017-04-30T05:14:03.652Z,21.57
2017-04-30T05:15:13.041Z,21.54
2017-04-30T05:16:21.821Z,21.57
2017-04-30T05:17:30.905Z,21.62
2017-04-30T05:18:39.989Z,21.55
2017-04-30T05:19:49.389Z,21.6
2017-04-30T05:20:58.169Z,21.6
2017-04-30T05:22:06.942Z,21.62
2017-04-30T05:23:16.336Z,21.64
2017-04-30T05:24:25.082Z,21.64
2017-04-30T05:25:34.133Z,21.73
2017-04-30T05:26:42.910Z,21.66
2017-04-30T05:27:52.707Z,21.69
2017-04-30T05:29:02.065Z,21.77
2017-04-30T05:30:11.117Z,21.77
2017-04-30T05:31:19.901Z,21.69
2017-04-30T05:32:28.676Z,21.77
2017-04-30T05:33:37.725Z,21.82
2017-04-30T05:34:47.079Z,21.8
2017-04-30T05:35:55.858Z,21.8
2017-04-30T05:37:05.206Z,21.89
2017-04-30T05:38:14.577Z,21.89
2017-04-30T05:39:23.660Z,21.89
2017-04-30T05:40:32.759Z,21.93
2017-04-30T05:41:41.532Z,21.93
2017-04-30T05:42:50.595Z,21.92
2017-04-30T05:43:59.356Z,21.96
2017-04-30T05:45:08.436Z,22.02
2017-04-30T05:46:17.230Z,21.98
2017-04-30T05:47:26.610Z,22.07
2017-04-30T05:48:35.701Z,22.07
2017-04-30T05:49:44.753Z,22.06
2017-04-30T05:50:53.811Z,22.08
2017-04-30T05:52:02.861Z,22.1
2017-04-30T05:53:11.569Z,22.06
2017-04-30T05:54:20.630Z,22.11
2017-04-30T05:55:29.669Z,22.07
2017-04-30T05:56:38.430Z,22.17
2017-04-30T05:57:47.177Z,22.2
2017-04-30T05:58:57.174Z,22.23
2017-04-30T06:00:06.265Z,22.13
2017-04-30T06:01:15.054Z,22.15
2017-04-30T06:02:24.163Z,22.18
2017-04-30T06:03:32.947Z,22.25
2017-04-30T06:04:42.311Z,22.26
2017-04-30T06:05:51.354Z,22.26
2017-04-30T06:07:00.065Z,22.29
2017-04-30T06:08:09.120Z,22.3
2017-04-30T06:09:17.862Z,22.3
2017-04-30T06:10:27.236Z,22.33
2017-04-30T06:11:36.320Z,22.3
2017-04-30T06:12:45.418Z,22.35
2017-04-30T06:13:54.196Z,22.36
2017-04-30T06:15:03.280Z,22.39
2017-04-30T06:16:12.056Z,22.35
2017-04-30T06:17:21.435Z,22.41
2017-04-30T06:18:30.474Z,22.33
2017-04-30T06:19:39.234Z,22.38
2017-04-30T06:20:48.108Z,22.44
2017-04-30T06:21:57.161Z,22.44
2017-04-30T06:23:06.215Z,22.44
2017-04-30T06:24:14.983Z,22.47
2017-04-30T06:25:24.681Z,22.47
2017-04-30T06:26:33.764Z,22.53
2017-04-30T06:27:43.154Z,22.53
2017-04-30T06:28:52.594Z,22.5
2017-04-30T06:30:01.383Z,22.57
2017-04-30T06:31:10.809Z,22.54
2017-04-30T06:32:19.579Z,22.66
2017-04-30T06:33:28.674Z,22.66
2017-04-30T06:34:38.118Z,22.68
2017-04-30T06:35:47.512Z,22.63
2017-04-30T06:36:56.937Z,22.68
2017-04-30T06:38:06.593Z,22.7
2017-04-30T06:39:16.590Z,22.69
2017-04-30T06:40:25.970Z,22.75
2017-04-30T06:41:35.057Z,22.68
2017-04-30T06:42:43.825Z,22.66
2017-04-30T06:43:53.215Z,22.68
2017-04-30T06:45:02.288Z,22.72
2017-04-30T06:46:11.370Z,22.69
2017-04-30T06:47:20.459Z,22.68
2017-04-30T06:48:29.247Z,22.8
2017-04-30T06:49:38.027Z,22.72
2017-04-30T06:50:47.106Z,22.83
2017-04-30T06:51:56.534Z,22.8
2017-04-30T06:53:05.316Z,22.87
2017-04-30T06:54:14.712Z,22.87
2017-04-30T06:55:24.428Z,22.9
2017-04-30T06:56:33.518Z,22.84
2017-04-30T06:57:42.917Z,22.88
2017-04-30T06:58:52.010Z,22.93
2017-04-30T07:00:01.707Z,22.83
2017-04-30T07:01:11.095Z,22.87
2017-04-30T07:02:20.143Z,22.98
2017-04-30T07:03:28.896Z,22.93
2017-04-30T07:04:38.603Z,22.98
2017-04-30T07:05:47.381Z,22.98
2017-04-30T07:06:56.459Z,23
2017-04-30T07:08:05.227Z,23.06
2017-04-30T07:09:14.324Z,22.99
2017-04-30T07:10:23.707Z,22.99
2017-04-30T07:11:32.486Z,23.02
2017-04-30T07:12:41.275Z,23.06
2017-04-30T07:13:50.835Z,23.09
2017-04-30T07:14:59.920Z,23.08
2017-04-30T07:16:08.705Z,23.06
2017-04-30T07:17:17.497Z,23.09
2017-04-30T07:18:26.279Z,23.12
2017-04-30T07:19:35.675Z,23.09
2017-04-30T07:20:44.752Z,23.13
2017-04-30T07:21:53.824Z,23.12
2017-04-30T07:23:02.915Z,23.15
2017-04-30T07:24:12.282Z,23.15
2017-04-30T07:25:21.345Z,23.15
2017-04-30T07:26:30.427Z,23.17
2017-04-30T07:27:39.512Z,23.18
2017-04-30T07:28:48.901Z,23.23
2017-04-30T07:29:58.600Z,23.2
2017-04-30T07:31:07.381Z,23.2
2017-04-30T07:32:16.140Z,23.27
2017-04-30T07:33:25.808Z,23.23
2017-04-30T07:34:35.173Z,23.23
2017-04-30T07:35:44.565Z,23.31
2017-04-30T07:36:53.648Z,23.32
2017-04-30T07:38:02.730Z,23.31
2017-04-30T07:39:12.088Z,23.28
2017-04-30T07:40:21.452Z,23.43
2017-04-30T07:41:30.235Z,23.39
2017-04-30T07:42:39.340Z,23.47
2017-04-30T07:43:48.117Z,23.4
2017-04-30T07:44:57.209Z,23.41
2017-04-30T07:46:05.955Z,23.4
2017-04-30T07:47:14.965Z,23.41
2017-04-30T07:48:24.591Z,23.56
2017-04-30T07:49:33.961Z,23.55
2017-04-30T07:50:43.058Z,23.51
2017-04-30T07:51:52.445Z,23.56
2017-04-30T07:53:01.184Z,23.62
2017-04-30T07:54:10.240Z,23.51
2017-04-30T07:55:19.938Z,23.54
2017-04-30T07:56:28.721Z,23.58
2017-04-30T07:57:37.502Z,23.66
2017-04-30T07:58:46.851Z,23.63
2017-04-30T07:59:56.484Z,23.68
2017-04-30T08:01:05.533Z,23.77
2017-04-30T08:02:14.627Z,23.69
2017-04-30T08:03:24.033Z,23.73
2017-04-30T08:04:33.423Z,23.69
2017-04-30T08:05:42.200Z,23.77
2017-04-30T08:06:51.645Z,23.74
2017-04-30T08:08:00.744Z,23.71
2017-04-30T08:09:10.099Z,23.78
2017-04-30T08:10:19.159Z,23.81
2017-04-30T08:11:28.240Z,23.69
2017-04-30T08:12:37.309Z,23.87
2017-04-30T08:13:47.322Z,23.74
2017-04-30T08:14:56.589Z,23.8
2017-04-30T08:16:05.377Z,23.74
2017-04-30T08:17:14.441Z,23.76
2017-04-30T08:18:23.503Z,23.78
2017-04-30T08:19:33.208Z,23.84
2017-04-30T08:20:41.992Z,23.84
2017-04-30T08:21:51.078Z,23.86
2017-04-30T08:23:00.124Z,23.91
2017-04-30T08:24:09.186Z,23.95
2017-04-30T08:25:17.963Z,23.91
2017-04-30T08:26:27.048Z,23.87
2017-04-30T08:27:36.444Z,23.96
2017-04-30T08:28:45.799Z,24.01
2017-04-30T08:29:54.859Z,23.88
2017-04-30T08:31:03.947Z,23.92
2017-04-30T08:32:12.726Z,23.83
2017-04-30T08:33:22.111Z,23.71
2017-04-30T08:34:31.170Z,23.68
2017-04-30T08:35:40.546Z,23.59
2017-04-30T08:36:49.931Z,23.55
2017-04-30T08:37:59.331Z,23.5
2017-04-30T08:39:08.728Z,23.34
2017-04-30T08:40:18.127Z,23.2
2017-04-30T08:41:26.912Z,23.24
2017-04-30T08:42:36.306Z,23.13
2017-04-30T08:43:45.387Z,23.08
2017-04-30T08:44:54.671Z,23.05
2017-04-30T08:46:03.692Z,22.93
2017-04-30T08:47:12.414Z,22.93
2017-04-30T08:48:21.547Z,22.84
2017-04-30T08:49:31.246Z,22.94
2017-04-30T08:50:40.637Z,22.84
2017-04-30T08:51:49.724Z,22.76
2017-04-30T08:52:59.394Z,22.76
2017-04-30T08:54:08.167Z,22.72
2017-04-30T08:55:17.570Z,22.81
2017-04-30T08:56:26.973Z,22.81
2017-04-30T08:57:35.750Z,22.78
2017-04-30T08:58:44.837Z,22.81
2017-04-30T08:59:54.222Z,22.84
2017-04-30T09:01:03.633Z,22.76
2017-04-30T09:02:13.017Z,22.73
2017-04-30T09:03:21.773Z,22.75
2017-04-30T09:04:30.513Z,22.73
2017-04-30T09:05:39.875Z,22.65
2017-04-30T09:06:48.963Z,22.57
2017-04-30T09:07:58.363Z,22.62
2017-04-30T09:09:07.765Z,22.66
2017-04-30T09:10:17.159Z,22.69
2017-04-30T09:11:25.903Z,22.75
2017-04-30T09:12:34.664Z,22.66
2017-04-30T09:13:44.329Z,22.69
2017-04-30T09:14:53.700Z,22.7
2017-04-30T09:16:02.745Z,22.69
2017-04-30T09:17:11.826Z,22.83
2017-04-30T09:18:20.925Z,22.8
2017-04-30T09:19:30.625Z,22.8
2017-04-30T09:20:39.704Z,22.96
2017-04-30T09:21:48.792Z,22.98
2017-04-30T09:22:57.877Z,22.93
2017-04-30T09:24:06.659Z,22.99
2017-04-30T09:25:15.765Z,23.03
2017-04-30T09:26:24.857Z,22.96
2017-04-30T09:27:33.645Z,22.94
2017-04-30T09:28:42.423Z,22.93
2017-04-30T09:29:51.199Z,22.96
2017-04-30T09:31:00.588Z,22.96
2017-04-30T09:32:09.945Z,22.93
2017-04-30T09:33:19.007Z,22.84
2017-04-30T09:34:28.747Z,22.98
2017-04-30T09:35:37.799Z,22.76
2017-04-30T09:36:46.873Z,22.83
2017-04-30T09:37:55.970Z,22.83
2017-04-30T09:39:05.361Z,22.76
2017-04-30T09:40:14.749Z,22.76
2017-04-30T09:41:23.833Z,22.84
2017-04-30T09:42:33.535Z,22.93
2017-04-30T09:43:42.891Z,22.88
2017-04-30T09:44:52.257Z,22.78
2017-04-30T09:46:01.942Z,22.81
2017-04-30T09:47:11.030Z,22.84
2017-04-30T09:48:19.798Z,22.8
2017-04-30T09:49:28.895Z,22.72
2017-04-30T09:50:37.672Z,22.84
2017-04-30T09:51:46.723Z,22.83
2017-04-30T09:52:55.608Z,22.85
2017-04-30T09:54:04.999Z,22.98
2017-04-30T09:55:14.401Z,22.94
2017-04-30T09:56:23.505Z,23.05
2017-04-30T09:57:33.213Z,22.96
2017-04-30T09:58:42.589Z,23.05
2017-04-30T09:59:52.274Z,23.15
2017-04-30T10:01:01.635Z,23.24
2017-04-30T10:02:10.688Z,23.21
2017-04-30T10:03:19.783Z,23.25
2017-04-30T10:04:29.182Z,23.24
2017-04-30T10:05:38.525Z,23.23
2017-04-30T10:06:47.312Z,23.24
2017-04-30T10:07:56.408Z,23.25
2017-04-30T10:09:05.190Z,23.28
2017-04-30T10:10:14.894Z,23.32
2017-04-30T10:11:23.684Z,23.34
2017-04-30T10:12:32.761Z,23.39
2017-04-30T10:13:41.860Z,23.34
2017-04-30T10:14:50.955Z,23.23
2017-04-30T10:16:00.048Z,23.17
2017-04-30T10:17:09.144Z,23.13
2017-04-30T10:18:18.194Z,23.13
2017-04-30T10:19:28.207Z,23.23
2017-04-30T10:20:37.608Z,23.18
2017-04-30T10:21:46.391Z,23.24
2017-04-30T10:22:55.499Z,23.27
2017-04-30T10:24:04.273Z,23.28
2017-04-30T10:25:13.695Z,23.28
2017-04-30T10:26:22.474Z,23.41
2017-04-30T10:27:31.223Z,23.43
2017-04-30T10:28:40.272Z,23.41
2017-04-30T10:29:49.053Z,23.48
2017-04-30T10:30:58.435Z,23.44
2017-04-30T10:32:07.221Z,23.56
2017-04-30T10:33:16.016Z,23.58
2017-04-30T10:34:25.410Z,23.58
2017-04-30T10:35:35.121Z,23.44
2017-04-30T10:36:44.216Z,23.47
2017-04-30T10:37:53.837Z,23.43
2017-04-30T10:39:03.539Z,23.48
2017-04-30T10:40:12.287Z,23.54
2017-04-30T10:41:21.045Z,23.41
2017-04-30T10:42:30.442Z,23.51
2017-04-30T10:43:39.842Z,23.51
2017-04-30T10:44:48.921Z,23.5
2017-04-30T10:45:58.011Z,23.48
2017-04-30T10:47:07.100Z,23.44
2017-04-30T10:48:16.487Z,23.58
2017-04-30T10:49:25.872Z,23.48
2017-04-30T10:50:34.951Z,23.51
2017-04-30T10:51:43.728Z,23.44
2017-04-30T10:52:52.816Z,23.41
2017-04-30T10:54:02.207Z,23.44
2017-04-30T10:55:10.942Z,23.46
2017-04-30T10:56:19.698Z,23.51
2017-04-30T10:57:28.469Z,23.65
2017-04-30T10:58:37.869Z,23.65
2017-04-30T10:59:46.973Z,23.71
2017-04-30T11:00:56.044Z,23.66
2017-04-30T11:02:04.822Z,23.66
2017-04-30T11:03:13.611Z,23.69
2017-04-30T11:04:23.014Z,23.74
2017-04-30T11:05:33.324Z,23.8
2017-04-30T11:06:42.694Z,23.83
2017-04-30T11:07:52.053Z,23.8
2017-04-30T11:09:01.733Z,23.81
2017-04-30T11:10:10.514Z,23.91
2017-04-30T11:11:19.588Z,23.84
2017-04-30T11:12:28.324Z,23.78
2017-04-30T11:13:37.701Z,23.78
2017-04-30T11:14:46.789Z,23.84
2017-04-30T11:15:56.185Z,23.84
2017-04-30T11:17:05.887Z,23.95
2017-04-30T11:18:14.637Z,23.92
2017-04-30T11:19:24.340Z,23.98
2017-04-30T11:20:33.433Z,24.05
2017-04-30T11:21:42.218Z,24.03
2017-04-30T11:22:51.467Z,24.06
2017-04-30T11:24:00.833Z,24.03
2017-04-30T11:25:09.919Z,24.13
2017-04-30T11:26:19.006Z,24.03
2017-04-30T11:27:28.089Z,24.2
2017-04-30T11:28:37.450Z,24.2
2017-04-30T11:29:46.211Z,24.18
2017-04-30T11:30:55.303Z,24.17
2017-04-30T11:32:04.369Z,24.26
2017-04-30T11:33:13.144Z,24.05
2017-04-30T11:34:22.540Z,24.17
2017-04-30T11:35:31.925Z,24.18
2017-04-30T11:36:40.723Z,24.18
2017-04-30T11:37:50.121Z,24.21
2017-04-30T11:38:59.809Z,24.18
2017-04-30T11:40:08.563Z,24.21
2017-04-30T11:41:17.322Z,24.24
2017-04-30T11:42:27.026Z,24.18
2017-04-30T11:43:35.809Z,24.28
2017-04-30T11:44:44.896Z,24.24
2017-04-30T11:45:53.985Z,24.33
2017-04-30T11:47:03.378Z,24.33
2017-04-30T11:48:12.785Z,24.39
2017-04-30T11:49:22.191Z,24.42
2017-04-30T11:50:31.312Z,24.32
2017-04-30T11:51:40.102Z,24.35
2017-04-30T11:52:49.823Z,24.32
2017-04-30T11:53:59.222Z,24.36
2017-04-30T11:55:08.272Z,24.36
2017-04-30T11:56:17.637Z,24.38
2017-04-30T11:57:26.449Z,24.35
2017-04-30T11:58:35.550Z,24.43
2017-04-30T11:59:44.698Z,24.42
2017-04-30T12:00:53.480Z,24.33
2017-04-30T12:02:02.254Z,24.47
2017-04-30T12:03:11.310Z,24.39
2017-04-30T12:04:20.078Z,24.47
2017-04-30T12:05:28.827Z,24.4
2017-04-30T12:06:37.847Z,24.38
2017-04-30T12:07:46.895Z,24.42
2017-04-30T12:08:57.009Z,24.57
2017-04-30T12:10:06.663Z,24.58
2017-04-30T12:11:15.378Z,24.61
2017-04-30T12:12:24.136Z,24.58
2017-04-30T12:13:33.536Z,24.58
2017-04-30T12:14:42.330Z,24.63
2017-04-30T12:15:51.717Z,24.63
2017-04-30T12:17:01.101Z,24.57
2017-04-30T12:18:09.877Z,24.65
2017-04-30T12:19:19.272Z,24.57
2017-04-30T12:20:28.367Z,24.6
2017-04-30T12:21:37.156Z,24.6
2017-04-30T12:22:45.942Z,24.53
2017-04-30T12:23:55.340Z,24.6
2017-04-30T12:25:05.005Z,24.55
2017-04-30T12:26:13.719Z,24.4
2017-04-30T12:27:22.796Z,24.48
2017-04-30T12:28:31.583Z,24.47
2017-04-30T12:29:40.687Z,24.32
2017-04-30T12:30:49.756Z,24.18
2017-04-30T12:31:58.501Z,24.24
2017-04-30T12:33:07.256Z,24.16
2017-04-30T12:34:16.306Z,24.24
2017-04-30T12:35:25.641Z,24.21
2017-04-30T12:36:34.696Z,24.16
2017-04-30T12:37:44.659Z,24.18
2017-04-30T12:38:54.033Z,24.1
2017-04-30T12:40:03.729Z,24.2
2017-04-30T12:41:12.501Z,24.1
2017-04-30T12:42:21.292Z,24.06
2017-04-30T12:43:30.395Z,24.01
2017-04-30T12:44:39.786Z,23.96
2017-04-30T12:45:49.169Z,23.91
2017-04-30T12:46:57.903Z,23.96
2017-04-30T12:48:06.962Z,23.96
2017-04-30T12:49:16.051Z,23.96
2017-04-30T12:50:25.118Z,23.95
2017-04-30T12:51:34.220Z,23.91
2017-04-30T12:52:43.341Z,23.92
2017-04-30T12:53:52.784Z,23.96
2017-04-30T12:55:02.179Z,23.87
2017-04-30T12:56:11.258Z,23.91
2017-04-30T12:57:20.040Z,23.95
2017-04-30T12:58:28.823Z,23.91
2017-04-30T12:59:37.872Z,23.87
2017-04-30T13:00:46.943Z,23.87
2017-04-30T13:01:56.041Z,23.93
2017-04-30T13:03:04.825Z,23.84
2017-04-30T13:04:13.614Z,23.86
2017-04-30T13:05:23.312Z,23.84
2017-04-30T13:06:32.089Z,23.8
2017-04-30T13:07:40.875Z,23.77
2017-04-30T13:08:49.914Z,23.69
2017-04-30T13:09:59.311Z,23.69
2017-04-30T13:11:08.408Z,23.69
2017-04-30T13:12:17.213Z,23.66
2017-04-30T13:13:26.266Z,23.58
2017-04-30T13:14:35.033Z,23.56
2017-04-30T13:15:44.109Z,23.55
2017-04-30T13:16:53.192Z,23.66
2017-04-30T13:18:02.291Z,23.68
2017-04-30T13:19:11.069Z,23.54
2017-04-30T13:20:19.846Z,23.55
2017-04-30T13:21:28.943Z,23.47
2017-04-30T13:22:37.687Z,23.44
2017-04-30T13:23:47.054Z,23.41
2017-04-30T13:24:56.744Z,23.48
2017-04-30T13:26:06.452Z,23.43
2017-04-30T13:27:15.858Z,23.46
2017-04-30T13:28:25.567Z,23.39
2017-04-30T13:29:34.355Z,23.37
2017-04-30T13:30:43.758Z,23.41
2017-04-30T13:31:52.531Z,23.36
2017-04-30T13:33:01.562Z,23.41
2017-04-30T13:34:10.654Z,23.32
2017-04-30T13:35:19.745Z,23.4
2017-04-30T13:36:28.559Z,23.43
2017-04-30T13:37:37.335Z,23.37
2017-04-30T13:38:46.730Z,23.41
2017-04-30T13:39:56.436Z,23.31
2017-04-30T13:41:05.829Z,23.21
2017-04-30T13:42:14.626Z,23.32
2017-04-30T13:43:23.672Z,23.34
2017-04-30T13:44:33.024Z,23.37
2017-04-30T13:45:42.100Z,23.21
2017-04-30T13:46:51.139Z,23.2
2017-04-30T13:48:00.041Z,23.21
2017-04-30T13:49:08.826Z,23.13
2017-04-30T13:50:17.612Z,23.09
2017-04-30T13:51:26.392Z,23.05
2017-04-30T13:52:36.085Z,22.99
2017-04-30T13:53:44.832Z,23
2017-04-30T13:54:54.159Z,23
2017-04-30T13:56:03.831Z,23.03
2017-04-30T13:57:12.927Z,22.91
2017-04-30T13:58:21.946Z,23.02
2017-04-30T13:59:31.343Z,22.93
2017-04-30T14:00:40.713Z,22.96
2017-04-30T14:01:49.471Z,22.93
2017-04-30T14:02:58.562Z,22.98
2017-04-30T14:04:07.659Z,22.98
2017-04-30T14:05:16.744Z,22.9
2017-04-30T14:06:25.522Z,22.98
2017-04-30T14:07:34.304Z,23.03
2017-04-30T14:08:43.700Z,23
2017-04-30T14:09:52.792Z,22.94
2017-04-30T14:11:02.199Z,23.06
2017-04-30T14:12:11.327Z,23
2017-04-30T14:13:20.720Z,22.99
2017-04-30T14:14:30.110Z,22.94
2017-04-30T14:15:38.847Z,22.94
2017-04-30T14:16:47.599Z,22.99
2017-04-30T14:17:56.690Z,22.99
2017-04-30T14:19:06.392Z,22.98
2017-04-30T14:20:15.790Z,23.08
2017-04-30T14:21:24.861Z,23.02
2017-04-30T14:22:33.642Z,23
2017-04-30T14:23:43.034Z,23.05
2017-04-30T14:24:51.830Z,23
2017-04-30T14:26:01.531Z,22.99
2017-04-30T14:27:10.316Z,23
2017-04-30T14:28:19.714Z,22.99
2017-04-30T14:29:29.411Z,22.94
2017-04-30T14:30:38.233Z,22.93
2017-04-30T14:31:46.967Z,22.93
2017-04-30T14:32:56.333Z,22.91
2017-04-30T14:34:05.420Z,22.91
2017-04-30T14:35:14.807Z,22.9
2017-04-30T14:36:24.187Z,22.91
2017-04-30T14:37:33.232Z,22.85
2017-04-30T14:38:42.903Z,22.88
2017-04-30T14:39:51.976Z,22.8
2017-04-30T14:41:00.773Z,22.8
2017-04-30T14:42:09.557Z,22.85
2017-04-30T14:43:18.916Z,22.76
2017-04-30T14:44:27.677Z,22.81
2017-04-30T14:45:36.412Z,22.76
2017-04-30T14:46:45.473Z,22.83
2017-04-30T14:47:54.249Z,22.9
2017-04-30T14:49:03.296Z,22.8
2017-04-30T14:50:12.965Z,22.88
2017-04-30T14:51:22.064Z,22.85
2017-04-30T14:52:30.837Z,22.83
2017-04-30T14:53:39.921Z,22.87
2017-04-30T14:54:49.551Z,22.76